Terminal Aerodrome Forecast
Issued by NWS Grand Forks, ND

Home | Current Version | Previous Version | Graphics & Text | Print | Product List | Glossary On
Versions: 1 2 3 4 5 6 7 8 9 10 11 12 13
000
FTUS43 KFGF 032320
TAFFAR
TAF
KFAR 032320Z 0400/0424 34008KT P6SM FEW060
     FM040200 VRB04KT P6SM SKC
     FM041600 05007KT P6SM FEW080=

USA.gov is the U.S. government's official web portal to all federal, state and local government web resources and services.